createdAt,value
2022-11-21T00:00:57.863Z,4.78
2022-11-21T00:01:59.671Z,4.78
2022-11-21T00:03:02.452Z,4.83
2022-11-21T00:04:04.027Z,4.79
2022-11-21T00:05:05.837Z,4.77
2022-11-21T00:06:07.437Z,4.73
2022-11-21T00:07:09.310Z,4.70
2022-11-21T00:08:12.847Z,4.70
2022-11-21T00:09:14.304Z,4.76
2022-11-21T00:10:16.553Z,4.76
2022-11-21T00:11:18.050Z,4.76
2022-11-21T00:12:19.444Z,4.76
2022-11-21T00:13:21.058Z,4.69
2022-11-21T00:14:22.594Z,4.69
2022-11-21T00:15:26.304Z,4.62
2022-11-21T00:16:27.861Z,4.66
2022-11-21T00:17:29.312Z,4.67
2022-11-21T00:18:30.974Z,4.75
2022-11-21T00:19:33.933Z,4.75
2022-11-21T00:20:37.140Z,4.78
2022-11-21T00:21:38.933Z,4.73
2022-11-21T00:22:40.453Z,4.66
2022-11-21T00:23:45.437Z,4.71
2022-11-21T00:24:50.503Z,4.72
2022-11-21T00:25:54.501Z,4.79
2022-11-21T00:26:56.721Z,4.79
2022-11-21T00:27:58.161Z,4.71
2022-11-21T00:28:59.554Z,4.76
2022-11-21T00:30:01.059Z,4.80
2022-11-21T00:31:03.718Z,4.86
2022-11-21T00:32:05.669Z,4.88
2022-11-21T00:33:07.077Z,4.91
2022-11-21T00:34:09.512Z,4.93
2022-11-21T00:35:10.953Z,4.84
2022-11-21T00:36:12.735Z,4.87
2022-11-21T00:37:14.247Z,4.84
2022-11-21T00:38:16.273Z,4.82
2022-11-21T00:39:17.744Z,4.90
2022-11-21T00:40:19.473Z,4.94
2022-11-21T00:41:21.261Z,5.02
2022-11-21T00:42:22.731Z,5.04
2022-11-21T00:43:24.236Z,5.09
2022-11-21T00:44:26.032Z,5.11
2022-11-21T00:45:27.751Z,5.09
2022-11-21T00:46:29.571Z,5.07
2022-11-21T00:47:31.004Z,4.90
2022-11-21T00:48:33.002Z,4.92
2022-11-21T00:49:34.525Z,4.98
2022-11-21T00:50:35.938Z,5.01
2022-11-21T00:51:37.736Z,5.05
2022-11-21T00:52:39.197Z,5.08
2022-11-21T00:53:40.874Z,5.12
2022-11-21T00:54:42.319Z,5.16
2022-11-21T00:55:44.163Z,5.20
2022-11-21T00:56:45.615Z,5.21
2022-11-21T00:57:47.046Z,5.19
2022-11-21T00:58:48.453Z,5.18
2022-11-21T00:59:49.875Z,5.20
2022-11-21T01:00:51.835Z,5.21
2022-11-21T01:01:53.678Z,5.26
2022-11-21T01:02:55.205Z,5.30
2022-11-21T01:03:58.534Z,5.34
2022-11-21T01:04:59.973Z,5.31
2022-11-21T01:06:13.269Z,5.29
2022-11-21T01:07:15.420Z,5.32
2022-11-21T01:08:16.998Z,5.39
2022-11-21T01:09:18.436Z,5.40
2022-11-21T01:10:19.998Z,5.40
2022-11-21T01:11:21.770Z,5.37
2022-11-21T01:12:23.322Z,5.34
2022-11-21T01:13:24.993Z,5.43
2022-11-21T01:14:26.950Z,5.37
2022-11-21T01:15:28.808Z,5.40
2022-11-21T01:16:30.634Z,5.42
2022-11-21T01:17:33.061Z,5.44
2022-11-21T01:18:35.074Z,5.35
2022-11-21T01:19:36.527Z,5.32
2022-11-21T01:20:41.170Z,5.39
2022-11-21T01:21:42.693Z,5.41
2022-11-21T01:22:44.282Z,5.47
2022-11-21T01:23:45.901Z,5.49
2022-11-21T01:24:47.409Z,5.54
2022-11-21T01:25:49.185Z,5.56
2022-11-21T01:26:51.159Z,5.54
2022-11-21T01:27:52.631Z,5.53
2022-11-21T01:28:54.867Z,5.55
2022-11-21T01:29:56.380Z,5.53
2022-11-21T01:31:15.866Z,5.53
2022-11-21T01:32:17.287Z,5.58
2022-11-21T01:33:18.734Z,5.50
2022-11-21T01:34:20.173Z,5.57
2022-11-21T01:35:21.756Z,5.61
2022-11-21T01:36:28.623Z,5.59
2022-11-21T01:37:30.090Z,5.57
2022-11-21T01:38:33.552Z,5.62
2022-11-21T01:39:35.021Z,5.51
2022-11-21T01:40:40.381Z,5.35
2022-11-21T01:41:44.912Z,5.37
2022-11-21T01:42:54.246Z,5.44
2022-11-21T01:43:55.691Z,5.44
2022-11-21T01:44:57.124Z,5.43
2022-11-21T01:46:07.903Z,5.53
2022-11-21T01:47:09.714Z,5.59
2022-11-21T01:48:11.627Z,5.50
2022-11-21T01:49:24.504Z,5.55
2022-11-21T01:50:25.912Z,5.67
2022-11-21T01:51:33.317Z,5.70
2022-11-21T01:52:34.941Z,5.68
2022-11-21T01:53:37.722Z,5.64
2022-11-21T01:54:44.802Z,5.60
2022-11-21T01:55:46.428Z,5.59
2022-11-21T01:57:00.009Z,5.57
2022-11-21T01:58:02.340Z,5.61
2022-11-21T01:59:05.257Z,5.64
2022-11-21T02:00:12.500Z,5.70
2022-11-21T02:01:14.171Z,5.70
2022-11-21T02:02:21.099Z,5.75
2022-11-21T02:03:27.130Z,5.85
2022-11-21T02:04:31.302Z,5.79
2022-11-21T02:05:36.100Z,5.84
2022-11-21T02:06:37.800Z,5.79
2022-11-21T02:07:43.307Z,5.67
2022-11-21T02:08:45.428Z,5.57
2022-11-21T02:09:51.379Z,5.59
2022-11-21T02:11:12.374Z,5.65
2022-11-21T02:12:24.302Z,5.49
2022-11-21T02:13:26.467Z,5.52
2022-11-21T02:14:29.146Z,5.54
2022-11-21T02:15:30.908Z,5.60
2022-11-21T02:16:33.790Z,5.63
2022-11-21T02:17:35.358Z,5.65
2022-11-21T02:18:36.845Z,5.69
2022-11-21T02:19:54.100Z,5.70
2022-11-21T02:21:07.124Z,5.77
2022-11-21T02:22:18.048Z,5.72
2022-11-21T02:23:30.043Z,5.70
2022-11-21T02:24:49.200Z,5.68
2022-11-21T02:25:51.211Z,5.64
2022-11-21T02:26:53.090Z,5.62
2022-11-21T02:27:59.321Z,5.62
2022-11-21T02:29:00.900Z,5.66
2022-11-21T02:30:05.041Z,5.67
2022-11-21T02:31:06.546Z,5.71
2022-11-21T02:32:08.299Z,5.74
2022-11-21T02:33:11.271Z,5.79
2022-11-21T02:34:12.774Z,5.70
2022-11-21T02:35:16.402Z,5.67
2022-11-21T02:36:38.960Z,5.71
2022-11-21T02:37:41.632Z,5.72
2022-11-21T02:38:43.040Z,5.76
2022-11-21T02:39:47.360Z,5.74
2022-11-21T02:41:03.877Z,5.74
2022-11-21T02:42:08.259Z,5.76
2022-11-21T02:43:30.876Z,5.79
2022-11-21T02:45:10.356Z,5.82
2022-11-21T02:46:11.826Z,5.68
2022-11-21T02:47:13.655Z,5.51
2022-11-21T02:48:15.382Z,5.53
2022-11-21T02:49:24.197Z,5.59
2022-11-21T02:50:29.762Z,5.64
2022-11-21T02:51:31.243Z,5.64
2022-11-21T02:52:32.998Z,5.67
2022-11-21T02:53:34.482Z,5.66
2022-11-21T02:54:35.937Z,5.72
2022-11-21T02:55:38.176Z,5.69
2022-11-21T02:56:39.614Z,5.67
2022-11-21T02:57:41.544Z,5.63
2022-11-21T02:58:43.162Z,5.67
2022-11-21T02:59:44.600Z,5.54
2022-11-21T03:00:46.203Z,5.55
2022-11-21T03:01:48.029Z,5.70
2022-11-21T03:02:49.556Z,5.73
2022-11-21T03:03:50.993Z,5.72
2022-11-21T03:04:52.707Z,5.67
2022-11-21T03:05:54.979Z,5.65
2022-11-21T03:06:56.418Z,5.69
2022-11-21T03:07:58.013Z,5.63
2022-11-21T03:08:59.467Z,5.57
2022-11-21T03:10:00.885Z,5.48
2022-11-21T03:11:02.311Z,5.42
2022-11-21T03:12:10.666Z,5.41
2022-11-21T03:13:12.140Z,5.46
2022-11-21T03:14:13.581Z,5.55
2022-11-21T03:15:15.750Z,5.44
2022-11-21T03:16:17.206Z,5.47
2022-11-21T03:17:19.114Z,5.47
2022-11-21T03:18:20.525Z,5.51
2022-11-21T03:19:21.985Z,5.55
2022-11-21T03:20:23.890Z,5.65
2022-11-21T03:21:25.344Z,5.63
2022-11-21T03:22:26.799Z,5.58
2022-11-21T03:23:28.219Z,5.56
2022-11-21T03:24:29.830Z,5.47
2022-11-21T03:25:31.563Z,5.35
2022-11-21T03:27:34.591Z,5.41
2022-11-21T03:28:36.031Z,5.40
2022-11-21T03:29:37.558Z,5.47
2022-11-21T03:30:39.012Z,5.56
2022-11-21T03:31:40.587Z,5.45
2022-11-21T03:32:42.478Z,5.40
2022-11-21T03:33:43.892Z,5.29
2022-11-21T03:34:45.311Z,5.29
2022-11-21T03:35:48.058Z,5.26
2022-11-21T03:36:49.474Z,5.28
2022-11-21T03:37:51.269Z,5.38
2022-11-21T03:38:54.487Z,5.29
2022-11-21T03:39:55.901Z,5.33
2022-11-21T03:40:57.343Z,5.41
2022-11-21T03:41:58.785Z,5.47
2022-11-21T03:43:05.721Z,5.51
2022-11-21T03:44:09.521Z,5.50
2022-11-21T03:45:11.025Z,5.54
2022-11-21T03:46:12.436Z,5.45
2022-11-21T03:47:13.858Z,5.43
2022-11-21T03:48:15.834Z,5.49
2022-11-21T03:49:17.353Z,5.51
2022-11-21T03:50:20.934Z,5.50
2022-11-21T03:51:22.985Z,5.50
2022-11-21T03:52:24.511Z,5.57
2022-11-21T03:53:26.284Z,5.61
2022-11-21T03:54:27.922Z,5.57
2022-11-21T03:55:29.538Z,5.59
2022-11-21T03:56:31.069Z,5.57
2022-11-21T03:57:32.696Z,5.66
2022-11-21T03:58:34.482Z,5.70
2022-11-21T03:59:35.907Z,5.66
2022-11-21T04:00:37.322Z,5.59
2022-11-21T04:01:38.789Z,5.65
2022-11-21T04:02:40.390Z,5.64
2022-11-21T04:03:43.510Z,5.64
2022-11-21T04:04:44.913Z,5.53
2022-11-21T04:05:46.385Z,5.46
2022-11-21T04:06:48.058Z,5.37
2022-11-21T04:07:50.149Z,5.37
2022-11-21T04:08:52.211Z,5.41
2022-11-21T04:09:53.654Z,5.48
2022-11-21T04:10:55.333Z,5.48
2022-11-21T04:11:56.785Z,5.46
2022-11-21T04:12:58.385Z,5.49
2022-11-21T04:14:00.135Z,5.51
2022-11-21T04:15:01.719Z,5.58
2022-11-21T04:16:03.586Z,5.58
2022-11-21T04:17:05.352Z,5.48
2022-11-21T04:18:06.858Z,5.48
2022-11-21T04:19:09.159Z,5.54
2022-11-21T04:20:11.656Z,5.58
2022-11-21T04:21:13.153Z,5.58
2022-11-21T04:22:14.590Z,5.58
2022-11-21T04:23:16.113Z,5.58
2022-11-21T04:24:18.124Z,5.57
2022-11-21T04:25:19.585Z,5.62
2022-11-21T04:26:21.084Z,5.60
2022-11-21T04:27:22.575Z,5.63
2022-11-21T04:28:24.100Z,5.59
2022-11-21T04:29:26.020Z,5.59
2022-11-21T04:30:28.910Z,5.63
2022-11-21T04:31:30.367Z,5.64
2022-11-21T04:32:31.939Z,5.71
2022-11-21T04:33:33.617Z,5.71
2022-11-21T04:34:35.410Z,5.69
2022-11-21T04:35:36.985Z,5.72
2022-11-21T04:36:38.501Z,5.54
2022-11-21T04:37:40.011Z,5.53
2022-11-21T04:38:41.474Z,5.56
2022-11-21T04:39:43.333Z,5.63
2022-11-21T04:40:45.429Z,5.59
2022-11-21T04:41:46.918Z,5.53
2022-11-21T04:42:49.131Z,5.46
2022-11-21T04:43:50.567Z,5.53
2022-11-21T04:44:52.196Z,5.63
2022-11-21T04:45:53.977Z,5.68
2022-11-21T04:46:55.589Z,5.68
2022-11-21T04:47:57.052Z,5.69
2022-11-21T04:48:58.545Z,5.54
2022-11-21T04:50:00.288Z,5.47
2022-11-21T04:51:01.814Z,5.53
2022-11-21T04:52:03.528Z,5.51
2022-11-21T04:53:04.967Z,5.52
2022-11-21T04:54:06.396Z,5.52
2022-11-21T04:55:09.298Z,5.55
2022-11-21T04:56:11.238Z,5.59
2022-11-21T04:57:12.685Z,5.52
2022-11-21T04:58:14.216Z,5.46
2022-11-21T04:59:15.712Z,5.54
2022-11-21T05:00:23.779Z,5.55
2022-11-21T05:01:25.834Z,5.56
2022-11-21T05:02:27.366Z,5.61
2022-11-21T05:03:28.766Z,5.68
2022-11-21T05:04:30.427Z,5.59
2022-11-21T05:05:32.953Z,5.61
2022-11-21T05:06:34.684Z,5.64
2022-11-21T05:07:37.222Z,5.70
2022-11-21T05:08:38.637Z,5.61
2022-11-21T05:09:40.181Z,5.65
2022-11-21T05:11:02.363Z,5.70
2022-11-21T05:12:22.513Z,5.74
2022-11-21T05:13:24.602Z,5.71
2022-11-21T05:14:27.022Z,5.72
2022-11-21T05:15:28.700Z,5.67
2022-11-21T05:16:30.121Z,5.65
2022-11-21T05:17:31.595Z,5.69
2022-11-21T05:18:33.075Z,5.71
2022-11-21T05:19:34.614Z,5.70
2022-11-21T05:20:37.040Z,5.69
2022-11-21T05:21:38.588Z,5.71
2022-11-21T05:22:40.027Z,5.70
2022-11-21T05:23:41.497Z,5.62
2022-11-21T05:24:42.913Z,5.64
2022-11-21T05:25:44.414Z,5.71
2022-11-21T05:26:45.858Z,5.71
2022-11-21T05:27:47.329Z,5.67
2022-11-21T05:28:48.815Z,5.67
2022-11-21T05:29:50.246Z,5.73
2022-11-21T05:30:52.052Z,5.78
2022-11-21T05:31:53.501Z,5.80
2022-11-21T05:32:55.108Z,5.85
2022-11-21T05:33:56.786Z,5.88
2022-11-21T05:34:58.212Z,5.93
2022-11-21T05:35:59.697Z,5.92
2022-11-21T05:37:01.402Z,5.90
2022-11-21T05:38:03.880Z,5.92
2022-11-21T05:39:05.672Z,5.79
2022-11-21T05:40:07.863Z,5.60
2022-11-21T05:41:09.738Z,5.51
2022-11-21T05:42:11.164Z,5.48
2022-11-21T05:43:31.155Z,5.56
2022-11-21T05:44:32.585Z,5.65
2022-11-21T05:45:34.463Z,5.64
2022-11-21T05:46:35.888Z,5.77
2022-11-21T05:47:37.400Z,5.78
2022-11-21T05:48:38.912Z,5.84
2022-11-21T05:49:40.341Z,5.86
2022-11-21T05:50:41.892Z,5.94
2022-11-21T05:51:43.366Z,5.93
2022-11-21T05:52:44.807Z,5.80
2022-11-21T05:53:46.834Z,5.82
2022-11-21T05:54:48.276Z,5.83
2022-11-21T05:55:50.090Z,5.81
2022-11-21T05:56:51.564Z,5.80
2022-11-21T05:57:52.970Z,5.80
2022-11-21T05:58:55.412Z,5.84
2022-11-21T05:59:56.851Z,5.81
2022-11-21T06:01:00.203Z,5.82
2022-11-21T06:02:20.315Z,5.79
2022-11-21T06:03:27.829Z,5.83
2022-11-21T06:04:29.680Z,5.79
2022-11-21T06:05:31.479Z,5.79
2022-11-21T06:06:33.493Z,5.82
2022-11-21T06:07:34.977Z,5.75
2022-11-21T06:08:38.878Z,5.73
2022-11-21T06:09:40.314Z,5.77
2022-11-21T06:10:41.794Z,5.78
2022-11-21T06:11:43.436Z,5.81
2022-11-21T06:12:44.876Z,5.85
2022-11-21T06:13:46.328Z,5.82
2022-11-21T06:14:47.776Z,5.78
2022-11-21T06:16:00.366Z,5.74
2022-11-21T06:17:02.109Z,5.60
2022-11-21T06:18:03.638Z,5.61
2022-11-21T06:19:05.195Z,5.63
2022-11-21T06:20:07.281Z,5.61
2022-11-21T06:21:14.796Z,5.52
2022-11-21T06:22:16.312Z,5.51
2022-11-21T06:23:17.749Z,5.54
2022-11-21T06:24:22.194Z,5.53
2022-11-21T06:25:23.937Z,5.54
2022-11-21T06:26:27.845Z,5.58
2022-11-21T06:27:29.850Z,5.64
2022-11-21T06:28:36.270Z,5.46
2022-11-21T06:29:38.170Z,5.47
2022-11-21T06:30:39.646Z,5.38
2022-11-21T06:31:41.099Z,5.32
2022-11-21T06:32:42.935Z,5.31
2022-11-21T06:33:45.377Z,5.32
2022-11-21T06:34:46.794Z,5.34
2022-11-21T06:35:50.559Z,5.35
2022-11-21T06:36:52.338Z,5.42
2022-11-21T06:37:53.955Z,5.43
2022-11-21T06:38:56.210Z,5.36
2022-11-21T06:39:57.752Z,5.31
2022-11-21T06:41:07.750Z,5.35
2022-11-21T06:42:09.191Z,5.38
2022-11-21T06:43:10.818Z,5.33
2022-11-21T06:44:12.667Z,5.30
2022-11-21T06:45:14.218Z,5.35
2022-11-21T06:46:16.923Z,5.37
2022-11-21T06:47:18.327Z,5.40
2022-11-21T06:48:19.805Z,5.45
2022-11-21T06:49:22.215Z,5.51
2022-11-21T06:50:23.717Z,5.54
2022-11-21T06:51:26.079Z,5.59
2022-11-21T06:52:27.494Z,5.56
2022-11-21T06:53:28.938Z,5.55
2022-11-21T06:54:30.695Z,5.57
2022-11-21T06:55:32.281Z,5.59
2022-11-21T06:56:34.035Z,5.63
2022-11-21T06:57:35.482Z,5.59
2022-11-21T06:58:37.301Z,5.56
2022-11-21T06:59:38.900Z,5.56
2022-11-21T07:00:40.413Z,5.56
2022-11-21T07:01:42.275Z,5.53
2022-11-21T07:02:43.738Z,5.55
2022-11-21T07:03:45.169Z,5.55
2022-11-21T07:04:47.001Z,5.58
2022-11-21T07:05:49.151Z,5.62
2022-11-21T07:06:50.964Z,5.60
2022-11-21T07:07:52.391Z,5.66
2022-11-21T07:09:17.561Z,5.68
2022-11-21T07:10:16.038Z,5.63
2022-11-21T07:11:25.656Z,5.58
2022-11-21T07:12:46.186Z,5.56
2022-11-21T07:13:47.666Z,5.64
2022-11-21T07:14:49.085Z,5.67
2022-11-21T07:15:54.007Z,5.69
2022-11-21T07:16:55.880Z,5.65
2022-11-21T07:17:59.024Z,5.68
2022-11-21T07:19:00.514Z,5.69
2022-11-21T07:20:01.937Z,5.70
2022-11-21T07:21:05.476Z,5.71
2022-11-21T07:22:08.453Z,5.65
2022-11-21T07:23:10.374Z,5.69
2022-11-21T07:24:12.225Z,5.67
2022-11-21T07:25:13.731Z,5.66
2022-11-21T07:26:15.137Z,5.68
2022-11-21T07:27:16.898Z,5.68
2022-11-21T07:28:18.408Z,5.71
2022-11-21T07:29:19.835Z,5.76
2022-11-21T07:30:21.275Z,5.70
2022-11-21T07:31:23.074Z,5.61
2022-11-21T07:32:25.977Z,5.65
2022-11-21T07:33:27.767Z,5.68
2022-11-21T07:34:29.328Z,5.68
2022-11-21T07:35:30.890Z,5.72
2022-11-21T07:36:32.835Z,5.71
2022-11-21T07:37:39.164Z,5.90
2022-11-21T07:38:41.386Z,5.87
2022-11-21T07:39:43.311Z,5.79
2022-11-21T07:40:44.750Z,5.83
2022-11-21T07:41:46.528Z,5.76
2022-11-21T07:42:48.013Z,5.77
2022-11-21T07:43:49.472Z,5.74
2022-11-21T07:44:50.916Z,5.76
2022-11-21T07:45:52.327Z,5.68
2022-11-21T07:46:55.513Z,5.64
2022-11-21T07:48:01.278Z,5.52
2022-11-21T07:49:03.726Z,5.55
2022-11-21T07:50:06.581Z,5.66
2022-11-21T07:51:08.032Z,5.63
2022-11-21T07:52:09.449Z,5.65
2022-11-21T07:53:14.042Z,5.71
2022-11-21T07:54:15.454Z,5.75
2022-11-21T07:55:17.212Z,5.82
2022-11-21T07:56:19.462Z,5.94
2022-11-21T07:57:20.874Z,6.03
2022-11-21T07:58:22.766Z,6.01
2022-11-21T07:59:24.194Z,5.99
2022-11-21T08:00:26.817Z,5.99
2022-11-21T08:01:28.353Z,6.00
2022-11-21T08:02:29.860Z,6.01
2022-11-21T08:03:34.491Z,6.04
2022-11-21T08:04:35.908Z,6.12
2022-11-21T08:05:46.453Z,6.16
2022-11-21T08:06:48.214Z,6.19
2022-11-21T08:07:49.747Z,6.21
2022-11-21T08:08:55.073Z,6.22
2022-11-21T08:09:56.718Z,6.26
2022-11-21T08:10:58.164Z,6.24
2022-11-21T08:11:59.742Z,6.27
2022-11-21T08:13:01.178Z,6.28
2022-11-21T08:14:03.125Z,6.14
2022-11-21T08:15:06.807Z,6.22
2022-11-21T08:16:08.268Z,6.18
2022-11-21T08:17:09.736Z,6.19
2022-11-21T08:18:13.598Z,6.28
2022-11-21T08:19:15.014Z,6.31
2022-11-21T08:20:17.205Z,6.34
2022-11-21T08:21:20.116Z,6.38
2022-11-21T08:22:21.616Z,6.46
2022-11-21T08:23:22.936Z,6.44
2022-11-21T08:24:24.421Z,6.39
2022-11-21T08:25:25.832Z,6.29
2022-11-21T08:26:27.615Z,6.21
2022-11-21T08:27:29.016Z,6.23
2022-11-21T08:28:30.470Z,6.20
2022-11-21T08:29:31.866Z,6.31
2022-11-21T08:30:34.563Z,6.35
2022-11-21T08:31:37.383Z,6.44
2022-11-21T08:32:38.861Z,6.48
2022-11-21T08:33:40.263Z,6.49
2022-11-21T08:34:41.669Z,6.57
2022-11-21T08:35:43.447Z,6.66
2022-11-21T08:36:44.926Z,6.70
2022-11-21T08:37:46.477Z,6.74
2022-11-21T08:38:47.914Z,6.86
2022-11-21T08:39:49.371Z,6.89
2022-11-21T08:41:16.119Z,6.86
2022-11-21T08:42:19.007Z,6.95
2022-11-21T08:43:20.431Z,6.96
2022-11-21T08:44:21.840Z,6.97
2022-11-21T08:45:23.640Z,6.96
2022-11-21T08:46:27.795Z,6.91
2022-11-21T08:47:29.196Z,6.96
2022-11-21T08:48:30.605Z,7.08
2022-11-21T08:49:32.383Z,7.26
2022-11-21T08:50:34.133Z,7.43
2022-11-21T08:51:35.804Z,7.72
2022-11-21T08:52:37.233Z,7.99
2022-11-21T08:53:38.620Z,8.18
2022-11-21T08:54:40.072Z,8.68
2022-11-21T08:55:41.827Z,9.04
2022-11-21T08:56:43.898Z,9.35
2022-11-21T08:57:45.301Z,8.63
2022-11-21T08:58:46.722Z,9.03
2022-11-21T08:59:48.169Z,9.57
2022-11-21T09:00:50.077Z,9.61
2022-11-21T09:01:52.914Z,9.65
2022-11-21T09:02:54.380Z,9.98
2022-11-21T09:03:55.700Z,10.29
2022-11-21T09:04:57.019Z,10.59
2022-11-21T09:05:59.397Z,10.98
2022-11-21T09:07:01.946Z,10.88
2022-11-21T09:08:03.522Z,10.42
2022-11-21T09:09:06.320Z,10.30
2022-11-21T09:10:08.213Z,10.18
2022-11-21T09:11:10.267Z,9.55
2022-11-21T09:12:11.652Z,9.10
2022-11-21T09:13:13.139Z,8.94
2022-11-21T09:14:33.095Z,8.66
2022-11-21T09:15:53.294Z,8.33
2022-11-21T09:17:33.070Z,8.23
2022-11-21T09:18:34.379Z,8.29
2022-11-21T09:19:35.926Z,8.11
2022-11-21T09:20:42.478Z,7.86
2022-11-21T09:21:44.027Z,7.77
2022-11-21T09:22:45.401Z,7.69
2022-11-21T09:23:46.966Z,7.50
2022-11-21T09:24:48.571Z,7.47
2022-11-21T09:25:50.436Z,7.50
2022-11-21T09:26:51.851Z,7.42
2022-11-21T09:27:53.277Z,7.42
2022-11-21T09:28:54.681Z,7.35
2022-11-21T09:29:56.161Z,7.41
2022-11-21T09:30:59.157Z,7.46
2022-11-21T09:32:00.719Z,7.54
2022-11-21T09:33:03.742Z,7.58
2022-11-21T09:34:05.112Z,7.52
2022-11-21T09:35:06.770Z,7.49
2022-11-21T09:36:08.574Z,7.47
2022-11-21T09:37:10.341Z,7.48
2022-11-21T09:38:11.787Z,7.48
2022-11-21T09:39:13.219Z,7.46
2022-11-21T09:40:16.767Z,7.43
2022-11-21T09:41:46.215Z,7.50
2022-11-21T09:43:10.281Z,7.59
2022-11-21T09:44:11.646Z,7.57
2022-11-21T09:45:27.356Z,7.49
2022-11-21T09:46:37.343Z,7.32
2022-11-21T09:47:45.429Z,7.33
2022-11-21T09:49:04.812Z,7.30
2022-11-21T09:50:24.274Z,7.32
2022-11-21T09:51:29.753Z,7.44
2022-11-21T09:52:38.918Z,7.48
2022-11-21T09:53:50.436Z,7.46
2022-11-21T09:54:57.926Z,7.41
2022-11-21T09:56:04.957Z,7.34
2022-11-21T09:57:06.427Z,7.31
2022-11-21T09:58:32.658Z,7.31
2022-11-21T09:59:37.179Z,7.24
2022-11-21T10:00:38.755Z,7.24
2022-11-21T10:01:40.721Z,7.29
2022-11-21T10:02:42.336Z,7.30
2022-11-21T10:03:47.413Z,7.34
2022-11-21T10:04:50.480Z,7.37
2022-11-21T10:05:54.264Z,7.36
2022-11-21T10:07:03.221Z,7.42
2022-11-21T10:08:16.914Z,7.42
2022-11-21T10:09:24.451Z,7.37
2022-11-21T10:10:34.349Z,7.27
2022-11-21T10:11:59.015Z,7.24
2022-11-21T10:13:43.364Z,7.17
2022-11-21T10:15:14.217Z,7.19
2022-11-21T10:16:28.657Z,7.25
2022-11-21T10:17:48.657Z,7.22
2022-11-21T10:19:08.786Z,7.15
2022-11-21T10:20:31.432Z,7.13
2022-11-21T10:21:37.584Z,7.18
2022-11-21T10:22:54.362Z,7.29
2022-11-21T10:24:08.854Z,7.33
2022-11-21T10:25:21.701Z,7.39
2022-11-21T10:26:42.128Z,7.40
2022-11-21T10:27:52.721Z,7.43
2022-11-21T10:29:27.518Z,7.44
2022-11-21T10:30:29.811Z,7.44
2022-11-21T10:31:37.033Z,7.27
2022-11-21T10:32:43.192Z,7.32
2022-11-21T10:33:45.559Z,7.38
2022-11-21T10:34:50.194Z,7.42
2022-11-21T10:35:55.714Z,7.45
2022-11-21T10:37:01.973Z,7.46
2022-11-21T10:38:16.958Z,7.40
2022-11-21T10:39:33.332Z,7.33
2022-11-21T10:41:12.446Z,7.49
2022-11-21T10:42:32.623Z,7.49
2022-11-21T10:44:31.495Z,7.42
2022-11-21T10:45:32.891Z,7.42
2022-11-21T10:46:34.713Z,7.51
2022-11-21T10:47:37.795Z,7.62
2022-11-21T10:48:39.211Z,7.57
2022-11-21T10:49:42.273Z,7.54
2022-11-21T10:50:46.926Z,7.47
2022-11-21T10:52:00.639Z,7.50
2022-11-21T10:53:36.260Z,7.51
2022-11-21T10:55:02.445Z,7.55
2022-11-21T10:56:12.696Z,7.57
2022-11-21T10:57:18.689Z,7.59
2022-11-21T10:58:33.281Z,7.55
2022-11-21T10:59:34.780Z,7.48
2022-11-21T11:00:37.604Z,7.52
2022-11-21T11:01:39.401Z,7.46
2022-11-21T11:02:43.147Z,7.56
2022-11-21T11:04:00.976Z,7.55
2022-11-21T11:05:15.108Z,7.51
2022-11-21T11:06:28.161Z,7.34
2022-11-21T11:07:29.624Z,7.30
2022-11-21T11:08:51.567Z,7.37
2022-11-21T11:10:13.645Z,7.49
2022-11-21T11:11:20.614Z,7.47
2022-11-21T11:12:51.009Z,7.48
2022-11-21T11:14:04.576Z,7.53
2022-11-21T11:15:16.563Z,7.59
2022-11-21T11:16:21.406Z,7.68
2022-11-21T11:17:41.749Z,7.85
2022-11-21T11:19:08.460Z,8.02
2022-11-21T11:20:38.713Z,8.04
2022-11-21T11:21:41.167Z,8.10
2022-11-21T11:22:42.641Z,8.10
2022-11-21T11:23:45.397Z,8.13
2022-11-21T11:24:57.658Z,8.10
2022-11-21T11:26:03.677Z,8.09
2022-11-21T11:27:05.158Z,7.97
2022-11-21T11:28:09.203Z,7.91
2022-11-21T11:29:21.701Z,7.98
2022-11-21T11:30:23.186Z,8.01
2022-11-21T11:31:25.063Z,8.05
2022-11-21T11:32:26.535Z,8.02
2022-11-21T11:33:29.558Z,8.02
2022-11-21T11:34:38.682Z,7.96
2022-11-21T11:35:40.451Z,7.87
2022-11-21T11:36:54.544Z,7.69
2022-11-21T11:38:05.788Z,7.68
2022-11-21T11:39:18.759Z,7.75
2022-11-21T11:40:41.970Z,7.78
2022-11-21T11:42:17.303Z,7.76
2022-11-21T11:43:51.383Z,7.79
2022-11-21T11:45:17.192Z,7.82
2022-11-21T11:47:02.076Z,7.76
2022-11-21T11:48:10.576Z,7.81
2022-11-21T11:49:21.302Z,7.84
2022-11-21T11:50:32.890Z,7.97
2022-11-21T11:51:44.968Z,8.01
2022-11-21T11:52:52.439Z,7.95
2022-11-21T11:54:01.098Z,7.89
2022-11-21T11:55:14.459Z,7.80
2022-11-21T11:56:32.973Z,7.88
2022-11-21T11:57:37.324Z,7.81
2022-11-21T11:58:43.572Z,7.78
2022-11-21T11:59:51.045Z,7.75
2022-11-21T12:01:03.539Z,7.69
2022-11-21T12:02:20.525Z,7.50
2022-11-21T12:03:31.759Z,7.45
2022-11-21T12:04:44.179Z,7.48
2022-11-21T12:05:56.732Z,7.35
2022-11-21T12:08:45.041Z,7.36
2022-11-21T12:09:50.694Z,7.38
2022-11-21T12:11:23.696Z,7.34
2022-11-21T12:12:36.200Z,7.34
2022-11-21T12:13:39.811Z,7.37
2022-11-21T12:15:08.266Z,7.41
2022-11-21T12:16:14.378Z,7.34
2022-11-21T12:17:19.360Z,7.41
2022-11-21T12:18:20.822Z,7.50
2022-11-21T12:19:22.480Z,7.56
2022-11-21T12:20:37.002Z,7.37
2022-11-21T12:21:38.478Z,7.41
2022-11-21T12:22:39.959Z,7.49
2022-11-21T12:23:49.668Z,7.53
2022-11-21T12:24:51.145Z,7.60
2022-11-21T12:26:36.322Z,7.71
2022-11-21T12:27:41.233Z,7.77
2022-11-21T12:29:04.087Z,7.84
2022-11-21T12:30:14.873Z,7.85
2022-11-21T12:31:47.192Z,7.95
2022-11-21T12:33:08.170Z,8.11
2022-11-21T12:34:25.149Z,8.26
2022-11-21T12:35:40.516Z,8.26
2022-11-21T12:36:56.576Z,8.31
2022-11-21T12:38:06.942Z,8.42
2022-11-21T12:39:09.520Z,8.38
2022-11-21T12:40:19.939Z,8.18
2022-11-21T12:42:08.145Z,8.31
2022-11-21T12:43:24.665Z,8.29
2022-11-21T12:44:47.150Z,8.34
2022-11-21T12:46:10.702Z,8.39
2022-11-21T12:47:18.130Z,8.49
2022-11-21T12:48:57.084Z,8.55
2022-11-21T12:50:20.014Z,8.55
2022-11-21T12:51:46.090Z,8.46
2022-11-21T12:53:18.698Z,8.45
2022-11-21T12:54:32.024Z,8.36
2022-11-21T12:55:39.989Z,8.28
2022-11-21T12:56:49.634Z,8.09
2022-11-21T12:58:03.804Z,8.11
2022-11-21T12:59:07.598Z,8.16
2022-11-21T13:00:14.563Z,8.25
2022-11-21T13:01:39.545Z,8.37
2022-11-21T13:03:02.900Z,8.53
2022-11-21T13:04:11.474Z,8.66
2022-11-21T13:05:21.144Z,8.90
2022-11-21T13:06:28.556Z,9.09
2022-11-21T13:07:32.554Z,9.36
2022-11-21T13:08:37.000Z,9.06
2022-11-21T13:09:46.494Z,9.19
2022-11-21T13:11:19.339Z,9.54
2022-11-21T13:12:35.170Z,9.83
2022-11-21T13:13:39.226Z,10.03
2022-11-21T13:14:48.201Z,10.17
2022-11-21T13:15:53.952Z,10.34
2022-11-21T13:17:29.247Z,10.49
2022-11-21T13:18:36.085Z,10.75
2022-11-21T13:19:52.542Z,10.15
2022-11-21T13:20:54.017Z,10.00
2022-11-21T13:21:55.574Z,9.78
2022-11-21T13:22:59.834Z,9.51
2022-11-21T13:24:01.270Z,9.56
2022-11-21T13:25:09.425Z,9.72
2022-11-21T13:26:25.756Z,9.85
2022-11-21T13:27:37.913Z,10.05
2022-11-21T13:28:40.309Z,10.18
2022-11-21T13:30:07.747Z,10.50
2022-11-21T13:31:30.361Z,10.87
2022-11-21T13:32:51.503Z,10.92
2022-11-21T13:33:53.301Z,11.11
2022-11-21T13:34:54.763Z,11.15
2022-11-21T13:35:56.538Z,10.97
2022-11-21T13:36:58.959Z,11.11
2022-11-21T13:38:06.840Z,11.30
2022-11-21T13:39:08.341Z,11.08
2022-11-21T13:40:28.359Z,11.00
2022-11-21T13:41:54.886Z,11.17
2022-11-21T13:43:31.205Z,11.17
2022-11-21T13:44:32.854Z,10.94
2022-11-21T13:45:39.547Z,10.97
2022-11-21T13:47:09.715Z,11.37
2022-11-21T13:48:39.161Z,11.50
2022-11-21T13:49:43.579Z,11.48
2022-11-21T13:50:48.125Z,11.52
2022-11-21T13:51:54.397Z,11.39
2022-11-21T13:53:04.674Z,11.42
2022-11-21T13:54:06.048Z,11.19
2022-11-21T13:55:45.389Z,10.98
2022-11-21T13:57:11.531Z,10.72
2022-11-21T13:58:40.724Z,10.43
2022-11-21T13:59:57.163Z,10.21
2022-11-21T14:01:32.803Z,10.18
2022-11-21T14:02:46.111Z,10.02
2022-11-21T14:04:17.797Z,9.97
2022-11-21T14:05:38.021Z,10.00
2022-11-21T14:06:43.733Z,9.86
2022-11-21T14:07:46.211Z,9.76
2022-11-21T14:09:26.431Z,9.73
2022-11-21T14:10:36.003Z,9.52
2022-11-21T14:11:49.710Z,9.32
2022-11-21T14:12:54.506Z,9.27
2022-11-21T14:13:56.024Z,9.00
2022-11-21T14:15:00.428Z,8.77
2022-11-21T14:16:26.325Z,8.83
2022-11-21T14:17:47.285Z,8.59
2022-11-21T14:18:49.717Z,8.60
2022-11-21T14:19:56.516Z,8.68
2022-11-21T14:21:00.522Z,8.66
2022-11-21T14:22:02.150Z,8.74
2022-11-21T14:23:18.229Z,8.78
2022-11-21T14:24:20.042Z,8.65
2022-11-21T14:25:34.076Z,8.61
2022-11-21T14:26:42.124Z,8.64
2022-11-21T14:27:48.715Z,8.68
2022-11-21T14:28:50.316Z,8.53
2022-11-21T14:29:51.784Z,8.49
2022-11-21T14:30:58.975Z,8.51
2022-11-21T14:32:00.513Z,8.53
2022-11-21T14:33:25.267Z,8.55
2022-11-21T14:34:31.592Z,8.58
2022-11-21T14:35:34.277Z,8.56
2022-11-21T14:36:35.832Z,8.59
2022-11-21T14:37:42.226Z,8.59
2022-11-21T14:38:45.048Z,8.61
2022-11-21T14:39:52.736Z,8.60
2022-11-21T14:41:25.609Z,8.60